sensor_id;sensor_type;location;lat;lon;timestamp;P1;durP1;ratioP1;P2;durP2;ratioP2
21181;SDS011;10749;46.296;7.524;2023-02-04T00:01:23;14.30;;;5.90;;
21181;SDS011;10749;46.296;7.524;2023-02-04T00:03:49;8.93;;;5.90;;
21181;SDS011;10749;46.296;7.524;2023-02-04T00:06:14;12.47;;;6.73;;
21181;SDS011;10749;46.296;7.524;2023-02-04T00:08:39;10.87;;;6.47;;
21181;SDS011;10749;46.296;7.524;2023-02-04T00:11:05;9.40;;;6.13;;
21181;SDS011;10749;46.296;7.524;2023-02-04T00:13:30;12.03;;;6.13;;
21181;SDS011;10749;46.296;7.524;2023-02-04T00:15:56;10.83;;;6.50;;
21181;SDS011;10749;46.296;7.524;2023-02-04T00:18:21;10.83;;;6.33;;
21181;SDS011;10749;46.296;7.524;2023-02-04T00:20:46;9.90;;;6.13;;
21181;SDS011;10749;46.296;7.524;2023-02-04T00:23:12;10.60;;;6.33;;
21181;SDS011;10749;46.296;7.524;2023-02-04T00:25:37;8.70;;;6.00;;
21181;SDS011;10749;46.296;7.524;2023-02-04T00:28:02;10.47;;;5.77;;
21181;SDS011;10749;46.296;7.524;2023-02-04T00:30:28;12.03;;;5.70;;
21181;SDS011;10749;46.296;7.524;2023-02-04T00:32:53;10.13;;;5.93;;
21181;SDS011;10749;46.296;7.524;2023-02-04T00:35:20;10.50;;;5.60;;
21181;SDS011;10749;46.296;7.524;2023-02-04T00:37:47;10.03;;;5.90;;
21181;SDS011;10749;46.296;7.524;2023-02-04T00:40:13;11.13;;;5.50;;
21181;SDS011;10749;46.296;7.524;2023-02-04T00:42:38;11.67;;;6.07;;
21181;SDS011;10749;46.296;7.524;2023-02-04T00:45:03;8.27;;;5.00;;
21181;SDS011;10749;46.296;7.524;2023-02-04T00:47:29;9.27;;;5.13;;
21181;SDS011;10749;46.296;7.524;2023-02-04T00:49:54;8.60;;;5.10;;
21181;SDS011;10749;46.296;7.524;2023-02-04T00:52:19;7.43;;;4.63;;
21181;SDS011;10749;46.296;7.524;2023-02-04T00:54:45;10.60;;;5.67;;
21181;SDS011;10749;46.296;7.524;2023-02-04T00:57:10;7.40;;;5.10;;
21181;SDS011;10749;46.296;7.524;2023-02-04T00:59:35;8.73;;;5.13;;
21181;SDS011;10749;46.296;7.524;2023-02-04T01:02:01;8.07;;;4.67;;
21181;SDS011;10749;46.296;7.524;2023-02-04T01:04:26;8.27;;;4.30;;
21181;SDS011;10749;46.296;7.524;2023-02-04T01:06:52;7.30;;;4.50;;
21181;SDS011;10749;46.296;7.524;2023-02-04T01:09:18;9.00;;;5.60;;
21181;SDS011;10749;46.296;7.524;2023-02-04T01:11:43;9.90;;;5.00;;
21181;SDS011;10749;46.296;7.524;2023-02-04T01:14:08;7.63;;;4.63;;
21181;SDS011;10749;46.296;7.524;2023-02-04T01:16:33;6.33;;;4.57;;
21181;SDS011;10749;46.296;7.524;2023-02-04T01:18:59;8.20;;;4.87;;
21181;SDS011;10749;46.296;7.524;2023-02-04T01:21:24;7.83;;;4.47;;
21181;SDS011;10749;46.296;7.524;2023-02-04T01:23:50;7.27;;;5.20;;
21181;SDS011;10749;46.296;7.524;2023-02-04T01:26:16;8.73;;;4.77;;
21181;SDS011;10749;46.296;7.524;2023-02-04T01:28:42;8.03;;;4.90;;
21181;SDS011;10749;46.296;7.524;2023-02-04T01:31:07;9.07;;;4.73;;
21181;SDS011;10749;46.296;7.524;2023-02-04T01:33:32;9.53;;;5.33;;
21181;SDS011;10749;46.296;7.524;2023-02-04T01:35:58;7.23;;;4.20;;
21181;SDS011;10749;46.296;7.524;2023-02-04T01:38:23;7.77;;;4.33;;
21181;SDS011;10749;46.296;7.524;2023-02-04T01:40:48;8.40;;;4.07;;
21181;SDS011;10749;46.296;7.524;2023-02-04T01:43:14;6.67;;;3.63;;
21181;SDS011;10749;46.296;7.524;2023-02-04T01:45:41;4.53;;;3.40;;
21181;SDS011;10749;46.296;7.524;2023-02-04T01:48:07;6.60;;;3.60;;
21181;SDS011;10749;46.296;7.524;2023-02-04T01:50:32;5.83;;;4.00;;
21181;SDS011;10749;46.296;7.524;2023-02-04T01:52:58;6.63;;;4.10;;
21181;SDS011;10749;46.296;7.524;2023-02-04T01:55:25;7.00;;;4.07;;
21181;SDS011;10749;46.296;7.524;2023-02-04T01:57:52;9.30;;;4.00;;
21181;SDS011;10749;46.296;7.524;2023-02-04T02:00:23;6.80;;;4.13;;
21181;SDS011;10749;46.296;7.524;2023-02-04T02:02:54;5.63;;;2.83;;
21181;SDS011;10749;46.296;7.524;2023-02-04T02:05:21;5.37;;;2.67;;
21181;SDS011;10749;46.296;7.524;2023-02-04T02:07:50;5.00;;;3.13;;
21181;SDS011;10749;46.296;7.524;2023-02-04T02:10:17;4.50;;;3.27;;
21181;SDS011;10749;46.296;7.524;2023-02-04T02:12:43;7.37;;;3.77;;
21181;SDS011;10749;46.296;7.524;2023-02-04T02:15:11;11.00;;;3.97;;
21181;SDS011;10749;46.296;7.524;2023-02-04T02:17:37;6.43;;;3.67;;
21181;SDS011;10749;46.296;7.524;2023-02-04T02:20:14;8.20;;;4.20;;
21181;SDS011;10749;46.296;7.524;2023-02-04T02:25:24;8.30;;;4.23;;
21181;SDS011;10749;46.296;7.524;2023-02-04T02:27:49;8.63;;;4.57;;
21181;SDS011;10749;46.296;7.524;2023-02-04T02:30:15;6.63;;;3.97;;
21181;SDS011;10749;46.296;7.524;2023-02-04T02:32:42;6.63;;;4.13;;
21181;SDS011;10749;46.296;7.524;2023-02-04T02:35:09;6.87;;;3.53;;
21181;SDS011;10749;46.296;7.524;2023-02-04T02:37:35;5.10;;;3.50;;
21181;SDS011;10749;46.296;7.524;2023-02-04T02:40:00;5.73;;;3.53;;
21181;SDS011;10749;46.296;7.524;2023-02-04T02:42:25;7.53;;;3.87;;
21181;SDS011;10749;46.296;7.524;2023-02-04T02:44:51;5.47;;;3.57;;
21181;SDS011;10749;46.296;7.524;2023-02-04T02:47:19;6.40;;;3.70;;
21181;SDS011;10749;46.296;7.524;2023-02-04T02:49:46;5.87;;;3.40;;
21181;SDS011;10749;46.296;7.524;2023-02-04T02:52:14;6.60;;;3.53;;
21181;SDS011;10749;46.296;7.524;2023-02-04T02:54:41;6.73;;;3.63;;
21181;SDS011;10749;46.296;7.524;2023-02-04T02:57:11;5.87;;;3.57;;
21181;SDS011;10749;46.296;7.524;2023-02-04T02:59:39;5.10;;;3.50;;
21181;SDS011;10749;46.296;7.524;2023-02-04T03:02:04;6.07;;;2.93;;
21181;SDS011;10749;46.296;7.524;2023-02-04T03:04:30;5.23;;;2.63;;
21181;SDS011;10749;46.296;7.524;2023-02-04T03:06:59;5.77;;;2.70;;
21181;SDS011;10749;46.296;7.524;2023-02-04T03:09:25;6.73;;;2.77;;
21181;SDS011;10749;46.296;7.524;2023-02-04T03:11:51;4.33;;;2.67;;
21181;SDS011;10749;46.296;7.524;2023-02-04T03:14:17;3.87;;;2.40;;
21181;SDS011;10749;46.296;7.524;2023-02-04T03:16:43;5.03;;;2.50;;
21181;SDS011;10749;46.296;7.524;2023-02-04T03:19:08;5.50;;;2.60;;
21181;SDS011;10749;46.296;7.524;2023-02-04T03:21:35;5.83;;;2.60;;
21181;SDS011;10749;46.296;7.524;2023-02-04T03:24:00;5.03;;;2.40;;
21181;SDS011;10749;46.296;7.524;2023-02-04T03:26:26;4.03;;;2.43;;
21181;SDS011;10749;46.296;7.524;2023-02-04T03:28:52;4.17;;;2.10;;
21181;SDS011;10749;46.296;7.524;2023-02-04T03:31:18;3.37;;;2.30;;
21181;SDS011;10749;46.296;7.524;2023-02-04T03:33:43;4.07;;;2.37;;
21181;SDS011;10749;46.296;7.524;2023-02-04T03:36:09;3.37;;;2.20;;
21181;SDS011;10749;46.296;7.524;2023-02-04T03:38:34;4.03;;;2.10;;
21181;SDS011;10749;46.296;7.524;2023-02-04T03:40:59;4.33;;;2.47;;
21181;SDS011;10749;46.296;7.524;2023-02-04T03:43:25;4.77;;;2.47;;
21181;SDS011;10749;46.296;7.524;2023-02-04T03:45:50;4.50;;;2.20;;
21181;SDS011;10749;46.296;7.524;2023-02-04T03:48:16;4.67;;;2.57;;
21181;SDS011;10749;46.296;7.524;2023-02-04T03:50:41;3.03;;;2.23;;
21181;SDS011;10749;46.296;7.524;2023-02-04T03:53:07;6.07;;;2.20;;
21181;SDS011;10749;46.296;7.524;2023-02-04T03:55:32;4.60;;;2.47;;
21181;SDS011;10749;46.296;7.524;2023-02-04T03:57:57;3.97;;;2.27;;
21181;SDS011;10749;46.296;7.524;2023-02-04T04:00:23;4.37;;;2.33;;
21181;SDS011;10749;46.296;7.524;2023-02-04T04:02:48;4.43;;;2.20;;
21181;SDS011;10749;46.296;7.524;2023-02-04T04:05:13;5.93;;;3.00;;
21181;SDS011;10749;46.296;7.524;2023-02-04T04:07:39;4.80;;;2.33;;
21181;SDS011;10749;46.296;7.524;2023-02-04T04:10:04;3.13;;;2.00;;
21181;SDS011;10749;46.296;7.524;2023-02-04T04:12:30;3.20;;;1.77;;
21181;SDS011;10749;46.296;7.524;2023-02-04T04:14:55;4.00;;;2.27;;
21181;SDS011;10749;46.296;7.524;2023-02-04T04:17:20;3.30;;;1.93;;
21181;SDS011;10749;46.296;7.524;2023-02-04T04:19:45;4.57;;;2.40;;
21181;SDS011;10749;46.296;7.524;2023-02-04T04:22:11;3.47;;;2.10;;
21181;SDS011;10749;46.296;7.524;2023-02-04T04:24:36;5.30;;;2.40;;
21181;SDS011;10749;46.296;7.524;2023-02-04T04:27:01;3.97;;;2.00;;
21181;SDS011;10749;46.296;7.524;2023-02-04T04:29:27;5.10;;;2.47;;
21181;SDS011;10749;46.296;7.524;2023-02-04T04:31:52;4.47;;;2.30;;
21181;SDS011;10749;46.296;7.524;2023-02-04T04:34:17;3.43;;;2.27;;
21181;SDS011;10749;46.296;7.524;2023-02-04T04:36:43;5.97;;;2.47;;
21181;SDS011;10749;46.296;7.524;2023-02-04T04:39:08;3.33;;;2.33;;
21181;SDS011;10749;46.296;7.524;2023-02-04T04:41:33;2.60;;;1.93;;
21181;SDS011;10749;46.296;7.524;2023-02-04T04:43:59;3.33;;;2.50;;
21181;SDS011;10749;46.296;7.524;2023-02-04T04:46:24;3.63;;;2.37;;
21181;SDS011;10749;46.296;7.524;2023-02-04T04:48:49;3.73;;;2.37;;
21181;SDS011;10749;46.296;7.524;2023-02-04T04:51:14;4.00;;;2.30;;
21181;SDS011;10749;46.296;7.524;2023-02-04T04:53:40;3.27;;;2.13;;
21181;SDS011;10749;46.296;7.524;2023-02-04T04:56:05;5.07;;;2.30;;
21181;SDS011;10749;46.296;7.524;2023-02-04T04:58:30;3.70;;;1.90;;
21181;SDS011;10749;46.296;7.524;2023-02-04T05:00:56;4.10;;;2.10;;
21181;SDS011;10749;46.296;7.524;2023-02-04T05:03:21;5.30;;;2.17;;
21181;SDS011;10749;46.296;7.524;2023-02-04T05:05:46;3.83;;;2.17;;
21181;SDS011;10749;46.296;7.524;2023-02-04T05:08:11;4.27;;;2.50;;
21181;SDS011;10749;46.296;7.524;2023-02-04T05:10:40;3.27;;;2.43;;
21181;SDS011;10749;46.296;7.524;2023-02-04T05:13:07;4.27;;;2.40;;
21181;SDS011;10749;46.296;7.524;2023-02-04T05:15:32;5.13;;;2.63;;
21181;SDS011;10749;46.296;7.524;2023-02-04T05:17:58;7.03;;;2.40;;
21181;SDS011;10749;46.296;7.524;2023-02-04T05:20:23;4.00;;;2.40;;
21181;SDS011;10749;46.296;7.524;2023-02-04T05:22:49;3.73;;;2.27;;
21181;SDS011;10749;46.296;7.524;2023-02-04T05:25:15;3.77;;;2.90;;
21181;SDS011;10749;46.296;7.524;2023-02-04T05:27:43;4.57;;;2.73;;
21181;SDS011;10749;46.296;7.524;2023-02-04T05:30:09;5.30;;;2.60;;
21181;SDS011;10749;46.296;7.524;2023-02-04T05:32:35;4.70;;;2.87;;
21181;SDS011;10749;46.296;7.524;2023-02-04T05:35:01;4.47;;;2.23;;
21181;SDS011;10749;46.296;7.524;2023-02-04T05:37:26;3.10;;;2.20;;
21181;SDS011;10749;46.296;7.524;2023-02-04T05:39:52;6.10;;;2.33;;
21181;SDS011;10749;46.296;7.524;2023-02-04T05:42:17;4.30;;;2.40;;
21181;SDS011;10749;46.296;7.524;2023-02-04T05:44:42;4.37;;;2.37;;
21181;SDS011;10749;46.296;7.524;2023-02-04T05:47:08;4.93;;;2.37;;
21181;SDS011;10749;46.296;7.524;2023-02-04T05:49:33;3.30;;;2.60;;
21181;SDS011;10749;46.296;7.524;2023-02-04T05:51:58;3.47;;;2.20;;
21181;SDS011;10749;46.296;7.524;2023-02-04T05:54:24;3.10;;;2.40;;
21181;SDS011;10749;46.296;7.524;2023-02-04T05:56:50;4.93;;;2.87;;
21181;SDS011;10749;46.296;7.524;2023-02-04T05:59:15;7.43;;;2.47;;
21181;SDS011;10749;46.296;7.524;2023-02-04T06:01:41;5.03;;;2.40;;
21181;SDS011;10749;46.296;7.524;2023-02-04T06:04:06;4.50;;;2.20;;
21181;SDS011;10749;46.296;7.524;2023-02-04T06:06:31;3.13;;;2.03;;
21181;SDS011;10749;46.296;7.524;2023-02-04T06:08:57;2.37;;;1.90;;
21181;SDS011;10749;46.296;7.524;2023-02-04T06:11:22;4.30;;;2.13;;
21181;SDS011;10749;46.296;7.524;2023-02-04T06:13:47;2.17;;;1.53;;
21181;SDS011;10749;46.296;7.524;2023-02-04T06:16:12;3.30;;;1.80;;
21181;SDS011;10749;46.296;7.524;2023-02-04T06:18:38;2.17;;;1.40;;
21181;SDS011;10749;46.296;7.524;2023-02-04T06:21:03;3.00;;;1.60;;
21181;SDS011;10749;46.296;7.524;2023-02-04T06:23:29;3.43;;;1.40;;
21181;SDS011;10749;46.296;7.524;2023-02-04T06:25:55;3.43;;;1.90;;
21181;SDS011;10749;46.296;7.524;2023-02-04T06:28:20;6.23;;;2.70;;
21181;SDS011;10749;46.296;7.524;2023-02-04T06:30:46;4.83;;;2.23;;
21181;SDS011;10749;46.296;7.524;2023-02-04T06:33:11;4.60;;;2.90;;
21181;SDS011;10749;46.296;7.524;2023-02-04T06:35:36;6.13;;;2.90;;
21181;SDS011;10749;46.296;7.524;2023-02-04T06:38:02;5.63;;;3.00;;
21181;SDS011;10749;46.296;7.524;2023-02-04T06:40:27;4.93;;;2.70;;
21181;SDS011;10749;46.296;7.524;2023-02-04T06:42:52;4.20;;;2.63;;
21181;SDS011;10749;46.296;7.524;2023-02-04T06:45:17;4.30;;;2.47;;
21181;SDS011;10749;46.296;7.524;2023-02-04T06:47:43;5.67;;;2.30;;
21181;SDS011;10749;46.296;7.524;2023-02-04T06:50:08;5.07;;;2.30;;
21181;SDS011;10749;46.296;7.524;2023-02-04T06:52:34;4.80;;;2.23;;
21181;SDS011;10749;46.296;7.524;2023-02-04T06:55:00;3.53;;;2.07;;
21181;SDS011;10749;46.296;7.524;2023-02-04T06:57:25;4.70;;;2.30;;
21181;SDS011;10749;46.296;7.524;2023-02-04T06:59:50;3.27;;;2.03;;
21181;SDS011;10749;46.296;7.524;2023-02-04T07:02:15;4.13;;;2.70;;
21181;SDS011;10749;46.296;7.524;2023-02-04T07:04:41;4.40;;;2.60;;
21181;SDS011;10749;46.296;7.524;2023-02-04T07:07:08;2.97;;;2.47;;
21181;SDS011;10749;46.296;7.524;2023-02-04T07:09:34;6.03;;;2.80;;
21181;SDS011;10749;46.296;7.524;2023-02-04T07:11:59;3.40;;;2.17;;
21181;SDS011;10749;46.296;7.524;2023-02-04T07:14:24;4.77;;;2.50;;
21181;SDS011;10749;46.296;7.524;2023-02-04T07:16:49;3.73;;;2.07;;
21181;SDS011;10749;46.296;7.524;2023-02-04T07:19:15;3.30;;;2.20;;
21181;SDS011;10749;46.296;7.524;2023-02-04T07:21:40;2.77;;;1.90;;
21181;SDS011;10749;46.296;7.524;2023-02-04T07:24:05;5.17;;;2.43;;
21181;SDS011;10749;46.296;7.524;2023-02-04T07:26:31;6.10;;;2.10;;
21181;SDS011;10749;46.296;7.524;2023-02-04T07:28:56;2.87;;;1.97;;
21181;SDS011;10749;46.296;7.524;2023-02-04T07:31:21;4.67;;;2.60;;
21181;SDS011;10749;46.296;7.524;2023-02-04T07:33:47;4.23;;;1.90;;
21181;SDS011;10749;46.296;7.524;2023-02-04T07:36:12;3.87;;;2.10;;
21181;SDS011;10749;46.296;7.524;2023-02-04T07:38:37;4.83;;;2.40;;
21181;SDS011;10749;46.296;7.524;2023-02-04T07:41:03;3.50;;;2.10;;
21181;SDS011;10749;46.296;7.524;2023-02-04T07:43:28;4.97;;;1.90;;
21181;SDS011;10749;46.296;7.524;2023-02-04T07:45:53;6.17;;;2.20;;
21181;SDS011;10749;46.296;7.524;2023-02-04T07:48:19;2.90;;;1.80;;
21181;SDS011;10749;46.296;7.524;2023-02-04T07:50:44;4.10;;;2.70;;
21181;SDS011;10749;46.296;7.524;2023-02-04T07:53:09;4.73;;;2.80;;
21181;SDS011;10749;46.296;7.524;2023-02-04T07:55:34;4.30;;;2.60;;
21181;SDS011;10749;46.296;7.524;2023-02-04T07:58:00;4.67;;;2.20;;
21181;SDS011;10749;46.296;7.524;2023-02-04T08:00:25;2.80;;;1.93;;
21181;SDS011;10749;46.296;7.524;2023-02-04T08:02:50;3.33;;;2.37;;
21181;SDS011;10749;46.296;7.524;2023-02-04T08:05:16;4.10;;;1.90;;
21181;SDS011;10749;46.296;7.524;2023-02-04T08:07:41;2.43;;;1.80;;
21181;SDS011;10749;46.296;7.524;2023-02-04T08:10:08;4.30;;;2.10;;
21181;SDS011;10749;46.296;7.524;2023-02-04T08:12:34;4.37;;;1.83;;
21181;SDS011;10749;46.296;7.524;2023-02-04T08:15:00;5.13;;;1.73;;
21181;SDS011;10749;46.296;7.524;2023-02-04T08:17:25;3.50;;;1.93;;
21181;SDS011;10749;46.296;7.524;2023-02-04T08:19:51;3.60;;;2.30;;
21181;SDS011;10749;46.296;7.524;2023-02-04T08:22:16;2.93;;;1.43;;
21181;SDS011;10749;46.296;7.524;2023-02-04T08:24:41;3.27;;;1.80;;
21181;SDS011;10749;46.296;7.524;2023-02-04T08:27:07;2.97;;;1.63;;
21181;SDS011;10749;46.296;7.524;2023-02-04T08:29:32;3.97;;;2.63;;
21181;SDS011;10749;46.296;7.524;2023-02-04T08:31:57;3.67;;;2.10;;
21181;SDS011;10749;46.296;7.524;2023-02-04T08:34:23;2.47;;;1.90;;
21181;SDS011;10749;46.296;7.524;2023-02-04T08:36:48;3.83;;;1.90;;
21181;SDS011;10749;46.296;7.524;2023-02-04T08:39:13;4.13;;;1.90;;
21181;SDS011;10749;46.296;7.524;2023-02-04T08:41:38;4.73;;;1.93;;
21181;SDS011;10749;46.296;7.524;2023-02-04T08:44:04;4.30;;;1.80;;
21181;SDS011;10749;46.296;7.524;2023-02-04T08:46:29;3.63;;;1.90;;
21181;SDS011;10749;46.296;7.524;2023-02-04T08:48:54;3.93;;;2.07;;
21181;SDS011;10749;46.296;7.524;2023-02-04T08:51:20;2.80;;;1.63;;
21181;SDS011;10749;46.296;7.524;2023-02-04T08:53:45;4.63;;;1.70;;
21181;SDS011;10749;46.296;7.524;2023-02-04T08:56:10;3.13;;;1.60;;
21181;SDS011;10749;46.296;7.524;2023-02-04T08:58:40;3.80;;;1.77;;
21181;SDS011;10749;46.296;7.524;2023-02-04T09:01:06;6.97;;;1.47;;
21181;SDS011;10749;46.296;7.524;2023-02-04T09:03:32;3.33;;;1.70;;
21181;SDS011;10749;46.296;7.524;2023-02-04T09:05:57;3.90;;;1.80;;
21181;SDS011;10749;46.296;7.524;2023-02-04T09:08:22;1.97;;;1.50;;
21181;SDS011;10749;46.296;7.524;2023-02-04T09:10:47;2.10;;;1.60;;
21181;SDS011;10749;46.296;7.524;2023-02-04T09:13:13;3.10;;;1.50;;
21181;SDS011;10749;46.296;7.524;2023-02-04T09:15:38;1.77;;;1.23;;
21181;SDS011;10749;46.296;7.524;2023-02-04T09:18:03;1.70;;;1.40;;
21181;SDS011;10749;46.296;7.524;2023-02-04T09:20:37;2.13;;;1.30;;
21181;SDS011;10749;46.296;7.524;2023-02-04T09:23:03;2.50;;;1.30;;
21181;SDS011;10749;46.296;7.524;2023-02-04T09:25:30;1.63;;;1.33;;
21181;SDS011;10749;46.296;7.524;2023-02-04T09:27:56;2.90;;;1.50;;
21181;SDS011;10749;46.296;7.524;2023-02-04T09:30:21;3.37;;;1.60;;
21181;SDS011;10749;46.296;7.524;2023-02-04T09:32:46;4.17;;;1.70;;
21181;SDS011;10749;46.296;7.524;2023-02-04T09:35:12;5.20;;;1.40;;
21181;SDS011;10749;46.296;7.524;2023-02-04T09:37:37;3.07;;;1.73;;
21181;SDS011;10749;46.296;7.524;2023-02-04T09:40:02;3.33;;;1.60;;
21181;SDS011;10749;46.296;7.524;2023-02-04T09:42:28;6.87;;;2.13;;
21181;SDS011;10749;46.296;7.524;2023-02-04T09:44:53;2.70;;;1.67;;
21181;SDS011;10749;46.296;7.524;2023-02-04T09:47:20;3.23;;;1.40;;
21181;SDS011;10749;46.296;7.524;2023-02-04T09:49:48;1.53;;;1.40;;
21181;SDS011;10749;46.296;7.524;2023-02-04T09:52:14;2.87;;;1.80;;
21181;SDS011;10749;46.296;7.524;2023-02-04T09:54:42;2.53;;;1.40;;
21181;SDS011;10749;46.296;7.524;2023-02-04T09:57:12;2.10;;;1.30;;
21181;SDS011;10749;46.296;7.524;2023-02-04T09:59:41;4.57;;;1.67;;
21181;SDS011;10749;46.296;7.524;2023-02-04T10:02:21;2.30;;;1.37;;
21181;SDS011;10749;46.296;7.524;2023-02-04T10:04:49;1.70;;;1.60;;
21181;SDS011;10749;46.296;7.524;2023-02-04T10:07:16;2.93;;;1.50;;
21181;SDS011;10749;46.296;7.524;2023-02-04T10:09:46;2.37;;;1.50;;
21181;SDS011;10749;46.296;7.524;2023-02-04T10:12:12;2.20;;;1.80;;
21181;SDS011;10749;46.296;7.524;2023-02-04T10:14:38;4.33;;;1.97;;
21181;SDS011;10749;46.296;7.524;2023-02-04T10:17:04;3.20;;;1.63;;
21181;SDS011;10749;46.296;7.524;2023-02-04T10:19:30;3.33;;;1.50;;
21181;SDS011;10749;46.296;7.524;2023-02-04T10:21:55;2.53;;;1.87;;
21181;SDS011;10749;46.296;7.524;2023-02-04T10:24:22;2.70;;;1.80;;
21181;SDS011;10749;46.296;7.524;2023-02-04T10:26:54;2.40;;;1.40;;
21181;SDS011;10749;46.296;7.524;2023-02-04T10:29:34;3.70;;;1.33;;
21181;SDS011;10749;46.296;7.524;2023-02-04T10:31:59;5.87;;;1.83;;
21181;SDS011;10749;46.296;7.524;2023-02-04T10:34:34;4.60;;;1.60;;
21181;SDS011;10749;46.296;7.524;2023-02-04T10:37:17;2.80;;;1.90;;
21181;SDS011;10749;46.296;7.524;2023-02-04T10:39:44;2.73;;;1.83;;
21181;SDS011;10749;46.296;7.524;2023-02-04T10:42:19;2.30;;;1.67;;
21181;SDS011;10749;46.296;7.524;2023-02-04T10:44:46;3.83;;;1.73;;
21181;SDS011;10749;46.296;7.524;2023-02-04T10:47:19;1.90;;;1.50;;
21181;SDS011;10749;46.296;7.524;2023-02-04T10:52:35;3.43;;;1.73;;
21181;SDS011;10749;46.296;7.524;2023-02-04T10:55:03;2.23;;;1.70;;
21181;SDS011;10749;46.296;7.524;2023-02-04T10:57:31;1.67;;;1.53;;
21181;SDS011;10749;46.296;7.524;2023-02-04T11:00:03;3.60;;;2.07;;
21181;SDS011;10749;46.296;7.524;2023-02-04T11:02:39;3.47;;;1.40;;
21181;SDS011;10749;46.296;7.524;2023-02-04T11:05:21;1.87;;;1.50;;
21181;SDS011;10749;46.296;7.524;2023-02-04T11:07:48;1.73;;;1.40;;
21181;SDS011;10749;46.296;7.524;2023-02-04T11:10:21;4.90;;;1.87;;
21181;SDS011;10749;46.296;7.524;2023-02-04T11:18:41;4.10;;;2.03;;
21181;SDS011;10749;46.296;7.524;2023-02-04T11:22:03;2.40;;;1.70;;
21181;SDS011;10749;46.296;7.524;2023-02-04T11:34:06;5.57;;;1.90;;
21181;SDS011;10749;46.296;7.524;2023-02-04T11:36:48;3.27;;;1.50;;
21181;SDS011;10749;46.296;7.524;2023-02-04T11:42:22;4.87;;;1.67;;
21181;SDS011;10749;46.296;7.524;2023-02-04T11:45:04;1.80;;;1.40;;
21181;SDS011;10749;46.296;7.524;2023-02-04T11:47:37;1.90;;;1.30;;
21181;SDS011;10749;46.296;7.524;2023-02-04T11:50:10;2.37;;;1.50;;
21181;SDS011;10749;46.296;7.524;2023-02-04T11:52:48;2.83;;;1.50;;
21181;SDS011;10749;46.296;7.524;2023-02-04T11:55:14;2.17;;;1.50;;
21181;SDS011;10749;46.296;7.524;2023-02-04T11:57:40;2.30;;;1.60;;
21181;SDS011;10749;46.296;7.524;2023-02-04T12:03:01;3.40;;;1.40;;
21181;SDS011;10749;46.296;7.524;2023-02-04T12:05:43;1.50;;;1.40;;
21181;SDS011;10749;46.296;7.524;2023-02-04T12:08:13;2.77;;;1.60;;
21181;SDS011;10749;46.296;7.524;2023-02-04T12:11:04;1.43;;;1.03;;
21181;SDS011;10749;46.296;7.524;2023-02-04T12:13:48;2.83;;;1.13;;
21181;SDS011;10749;46.296;7.524;2023-02-04T12:16:18;2.03;;;1.20;;
21181;SDS011;10749;46.296;7.524;2023-02-04T12:18:43;1.77;;;1.00;;
21181;SDS011;10749;46.296;7.524;2023-02-04T12:21:09;2.23;;;1.40;;
21181;SDS011;10749;46.296;7.524;2023-02-04T12:23:34;2.47;;;1.23;;
21181;SDS011;10749;46.296;7.524;2023-02-04T12:25:59;1.83;;;1.13;;
21181;SDS011;10749;46.296;7.524;2023-02-04T12:28:25;1.80;;;1.13;;
21181;SDS011;10749;46.296;7.524;2023-02-04T12:30:51;2.73;;;1.40;;
21181;SDS011;10749;46.296;7.524;2023-02-04T12:33:17;3.70;;;1.30;;
21181;SDS011;10749;46.296;7.524;2023-02-04T12:35:42;3.27;;;1.13;;
21181;SDS011;10749;46.296;7.524;2023-02-04T12:38:08;1.50;;;1.03;;
21181;SDS011;10749;46.296;7.524;2023-02-04T12:40:34;3.00;;;1.30;;
21181;SDS011;10749;46.296;7.524;2023-02-04T12:42:59;2.40;;;1.50;;
21181;SDS011;10749;46.296;7.524;2023-02-04T12:45:25;2.20;;;1.10;;
21181;SDS011;10749;46.296;7.524;2023-02-04T12:47:50;3.47;;;1.20;;
21181;SDS011;10749;46.296;7.524;2023-02-04T12:50:16;1.77;;;1.10;;
21181;SDS011;10749;46.296;7.524;2023-02-04T12:52:47;1.40;;;1.07;;
21181;SDS011;10749;46.296;7.524;2023-02-04T12:55:13;2.70;;;1.10;;
21181;SDS011;10749;46.296;7.524;2023-02-04T12:57:38;3.20;;;1.40;;
21181;SDS011;10749;46.296;7.524;2023-02-04T13:00:04;2.97;;;1.30;;
21181;SDS011;10749;46.296;7.524;2023-02-04T13:02:29;2.83;;;1.20;;
21181;SDS011;10749;46.296;7.524;2023-02-04T13:04:55;2.80;;;1.10;;
21181;SDS011;10749;46.296;7.524;2023-02-04T13:07:21;2.17;;;1.20;;
21181;SDS011;10749;46.296;7.524;2023-02-04T13:09:47;2.47;;;1.10;;
21181;SDS011;10749;46.296;7.524;2023-02-04T13:12:13;2.97;;;1.27;;
21181;SDS011;10749;46.296;7.524;2023-02-04T13:14:39;1.57;;;1.20;;
21181;SDS011;10749;46.296;7.524;2023-02-04T13:17:07;1.60;;;1.00;;
21181;SDS011;10749;46.296;7.524;2023-02-04T13:19:33;2.70;;;1.20;;
21181;SDS011;10749;46.296;7.524;2023-02-04T13:21:58;3.27;;;1.10;;
21181;SDS011;10749;46.296;7.524;2023-02-04T13:24:24;1.97;;;1.00;;
21181;SDS011;10749;46.296;7.524;2023-02-04T13:26:50;1.83;;;1.10;;
21181;SDS011;10749;46.296;7.524;2023-02-04T13:29:15;2.10;;;0.90;;
21181;SDS011;10749;46.296;7.524;2023-02-04T13:31:41;2.13;;;1.20;;
21181;SDS011;10749;46.296;7.524;2023-02-04T13:34:06;1.20;;;1.10;;
21181;SDS011;10749;46.296;7.524;2023-02-04T13:36:31;1.60;;;1.00;;
21181;SDS011;10749;46.296;7.524;2023-02-04T13:38:57;1.80;;;1.10;;
21181;SDS011;10749;46.296;7.524;2023-02-04T13:41:24;1.40;;;1.10;;
21181;SDS011;10749;46.296;7.524;2023-02-04T13:43:50;1.50;;;1.00;;
21181;SDS011;10749;46.296;7.524;2023-02-04T13:46:15;1.50;;;1.20;;
21181;SDS011;10749;46.296;7.524;2023-02-04T13:48:41;3.63;;;1.57;;
21181;SDS011;10749;46.296;7.524;2023-02-04T13:51:06;1.63;;;1.17;;
21181;SDS011;10749;46.296;7.524;2023-02-04T13:53:31;1.77;;;1.30;;
21181;SDS011;10749;46.296;7.524;2023-02-04T13:55:57;2.90;;;1.20;;
21181;SDS011;10749;46.296;7.524;2023-02-04T13:58:22;2.03;;;1.17;;
21181;SDS011;10749;46.296;7.524;2023-02-04T14:00:48;1.40;;;1.30;;
21181;SDS011;10749;46.296;7.524;2023-02-04T14:03:13;1.87;;;1.10;;
21181;SDS011;10749;46.296;7.524;2023-02-04T14:05:38;1.73;;;1.20;;
21181;SDS011;10749;46.296;7.524;2023-02-04T14:08:04;3.17;;;1.17;;
21181;SDS011;10749;46.296;7.524;2023-02-04T14:10:29;2.30;;;1.20;;
21181;SDS011;10749;46.296;7.524;2023-02-04T14:12:54;2.87;;;1.43;;
21181;SDS011;10749;46.296;7.524;2023-02-04T14:15:20;1.33;;;1.02;;
21181;SDS011;10749;46.296;7.524;2023-02-04T14:17:45;1.33;;;1.00;;
21181;SDS011;10749;46.296;7.524;2023-02-04T14:20:10;1.30;;;1.00;;
21181;SDS011;10749;46.296;7.524;2023-02-04T14:22:36;1.73;;;1.20;;
21181;SDS011;10749;46.296;7.524;2023-02-04T14:25:01;2.27;;;1.20;;
21181;SDS011;10749;46.296;7.524;2023-02-04T14:27:26;1.30;;;1.20;;
21181;SDS011;10749;46.296;7.524;2023-02-04T14:29:52;1.73;;;1.20;;
21181;SDS011;10749;46.296;7.524;2023-02-04T14:32:17;2.90;;;1.27;;
21181;SDS011;10749;46.296;7.524;2023-02-04T14:34:42;2.43;;;1.17;;
21181;SDS011;10749;46.296;7.524;2023-02-04T14:37:08;1.10;;;1.00;;
21181;SDS011;10749;46.296;7.524;2023-02-04T14:39:33;3.10;;;1.50;;
21181;SDS011;10749;46.296;7.524;2023-02-04T14:41:58;1.80;;;1.10;;
21181;SDS011;10749;46.296;7.524;2023-02-04T14:44:24;2.90;;;1.23;;
21181;SDS011;10749;46.296;7.524;2023-02-04T14:46:50;1.57;;;1.33;;
21181;SDS011;10749;46.296;7.524;2023-02-04T14:49:15;2.20;;;1.10;;
21181;SDS011;10749;46.296;7.524;2023-02-04T14:51:41;2.40;;;0.93;;
21181;SDS011;10749;46.296;7.524;2023-02-04T14:54:06;1.30;;;1.10;;
21181;SDS011;10749;46.296;7.524;2023-02-04T14:56:32;1.97;;;0.90;;
21181;SDS011;10749;46.296;7.524;2023-02-04T14:58:57;1.20;;;0.90;;
21181;SDS011;10749;46.296;7.524;2023-02-04T15:01:22;1.60;;;0.90;;
21181;SDS011;10749;46.296;7.524;2023-02-04T15:03:48;3.93;;;1.30;;
21181;SDS011;10749;46.296;7.524;2023-02-04T15:06:13;1.50;;;0.90;;
21181;SDS011;10749;46.296;7.524;2023-02-04T15:08:38;1.77;;;1.00;;
21181;SDS011;10749;46.296;7.524;2023-02-04T15:11:03;2.90;;;0.97;;